createdAt,value
2022-08-18T16:53:55.809Z,28.11
2022-08-18T17:04:13.651Z,27.84
2022-08-18T17:14:30.540Z,27.61
2022-08-18T17:24:37.843Z,27.40
2022-08-18T17:35:00.939Z,27.17
2022-08-18T17:45:08.981Z,26.91
2022-08-18T17:55:20.167Z,26.67
2022-08-18T18:05:29.984Z,26.39
2022-08-18T18:15:40.216Z,26.03
2022-08-18T18:25:47.569Z,25.70
2022-08-18T18:35:59.265Z,25.46
2022-08-18T18:46:21.084Z,25.30
2022-08-18T18:56:30.314Z,24.99
2022-08-18T19:06:48.040Z,24.70
2022-08-18T19:16:58.036Z,24.60
2022-08-18T19:27:23.152Z,24.42
2022-08-18T19:37:31.260Z,24.28
2022-08-18T19:47:41.966Z,24.18
2022-08-18T19:58:01.571Z,24.13
2022-08-18T20:08:36.366Z,24.17
2022-08-18T20:18:46.216Z,24.06
2022-08-18T20:28:52.676Z,23.96
2022-08-18T20:39:01.344Z,23.81
2022-08-18T20:49:19.586Z,23.72
2022-08-18T20:59:30.285Z,23.52
2022-08-18T21:09:37.325Z,23.32
2022-08-18T21:19:44.503Z,23.20
2022-08-18T21:29:51.656Z,23.14
2022-08-18T21:40:01.374Z,23.13
2022-08-18T22:00:23.648Z,23.07
2022-08-18T22:10:51.467Z,22.86
2022-08-18T22:21:00.027Z,22.80
2022-08-18T22:31:07.963Z,22.63
2022-08-18T22:41:11.659Z,22.53
2022-08-18T22:51:19.989Z,22.51
2022-08-18T23:01:27.994Z,22.45
2022-08-18T23:11:35.085Z,22.34
2022-08-18T23:21:41.421Z,22.30
2022-08-18T23:31:49.841Z,22.20
2022-08-18T23:41:58.103Z,22.08
2022-08-18T23:52:05.891Z,21.90
